Allagash, Maine
Current Conditions -  °F | °C
As of 3:53 PM on Tuesday 25 Nov 2014 (Local Time) from KFVE Reporting Station
Broken Clouds Broken Clouds  
Wind Chill: -1°   Ceiling: 5000
Heat Index:   Visibility: 10mi
Dew Point: -3°   Wind: 16mph
Humidity: 62%   Direction: 250°WSW
Pressure: 29.71"   Gusts: 28mph
Location:  47.1951°N, 69.2728°W
Report Text: KFVE 252053Z AUTO 25014G24KT 10SM FEW042 BKN050 04/M03 A2971 RMK AO2 PK WND 23026/2009 SLP065 T00391028 51021
Loading
Personal Weather Stations






























Interactive Weather Map New forecast layout! Learn more

10-Day Weather Forecast

Advertisements
Track Severe Weather on mobile